createdAt,value
2022-11-03T00:01:52.656Z,64.10
2022-11-03T00:04:24.324Z,62.41
2022-11-03T00:06:56.631Z,59.97
2022-11-03T00:09:28.105Z,57.14
2022-11-03T00:11:59.619Z,56.20
2022-11-03T00:14:29.717Z,55.96
2022-11-03T00:16:59.587Z,54.79
2022-11-03T00:19:29.439Z,55.29
2022-11-03T00:21:59.894Z,55.00
2022-11-03T00:24:29.799Z,54.78
2022-11-03T00:27:01.258Z,55.61
2022-11-03T00:29:31.114Z,55.92
2022-11-03T00:32:01.154Z,56.73
2022-11-03T00:34:31.117Z,57.19
2022-11-03T00:37:01.096Z,57.97
2022-11-03T00:39:30.917Z,58.04
2022-11-03T00:42:03.736Z,58.31
2022-11-03T00:44:33.777Z,58.19
2022-11-03T00:47:03.725Z,58.13
2022-11-03T00:51:23.706Z,58.53
2022-11-03T00:53:56.241Z,58.59
2022-11-03T00:56:28.537Z,58.30
2022-11-03T00:59:01.114Z,58.16
2022-11-03T01:01:32.907Z,57.43
2022-11-03T01:04:20.781Z,56.87
2022-11-03T01:06:54.788Z,56.58
2022-11-03T01:09:27.277Z,56.94
2022-11-03T01:12:00.221Z,56.86
2022-11-03T01:14:33.418Z,56.79
2022-11-03T01:17:03.741Z,56.97
2022-11-03T01:19:33.578Z,56.31
2022-11-03T01:22:07.869Z,56.70
2022-11-03T01:24:41.757Z,56.89
2022-11-03T01:27:13.513Z,56.70
2022-11-03T01:29:43.636Z,56.89
2022-11-03T01:32:13.721Z,57.21
2022-11-03T01:34:43.696Z,57.14
2022-11-03T01:37:15.030Z,57.22
2022-11-03T01:39:44.985Z,56.91
2022-11-03T01:42:15.935Z,56.39
2022-11-03T01:44:50.945Z,55.58
2022-11-03T01:47:29.336Z,55.43
2022-11-03T01:50:04.699Z,54.85
2022-11-03T01:52:40.822Z,54.12
2022-11-03T01:55:16.205Z,54.14
2022-11-03T01:57:51.533Z,53.86
2022-11-03T02:00:21.674Z,53.82
2022-11-03T02:02:51.785Z,53.95
2022-11-03T02:05:23.793Z,54.40
2022-11-03T02:08:00.605Z,54.61
2022-11-03T02:10:30.819Z,55.40
2022-11-03T02:13:01.506Z,55.42
2022-11-03T02:15:33.318Z,55.62
2022-11-03T02:18:06.529Z,55.26
2022-11-03T02:20:37.294Z,55.58
2022-11-03T02:23:28.812Z,56.03
2022-11-03T02:26:02.457Z,56.35
2022-11-03T02:28:35.394Z,56.51
2022-11-03T02:31:15.989Z,56.73
2022-11-03T02:33:54.659Z,57.02
2022-11-03T02:36:31.565Z,56.79
2022-11-03T02:39:14.956Z,56.71
2022-11-03T02:41:48.884Z,56.99
2022-11-03T02:44:21.705Z,57.00
2022-11-03T02:46:57.674Z,57.19
2022-11-03T02:49:27.517Z,57.38
2022-11-03T02:52:03.336Z,57.51
2022-11-03T02:54:39.784Z,57.70
2022-11-03T02:57:17.498Z,57.02
2022-11-03T02:59:54.533Z,57.39
2022-11-03T03:02:33.352Z,57.15
2022-11-03T03:05:07.666Z,55.78
2022-11-03T03:07:41.271Z,54.81
2022-11-03T03:10:14.641Z,54.70
2022-11-03T03:12:51.144Z,54.20
2022-11-03T03:15:27.054Z,52.98
2022-11-03T03:18:03.325Z,53.77
2022-11-03T03:20:39.622Z,54.21
2022-11-03T03:23:18.964Z,55.09
2022-11-03T03:25:54.897Z,55.38
2022-11-03T03:28:31.897Z,56.22
2022-11-03T03:31:09.869Z,56.98
2022-11-03T03:33:43.512Z,57.70
2022-11-03T03:36:20.421Z,58.06
2022-11-03T03:38:54.422Z,58.93
2022-11-03T03:41:27.494Z,60.23
2022-11-03T03:44:02.467Z,60.54
2022-11-03T03:46:38.525Z,61.14
2022-11-03T03:52:20.958Z,60.97
2022-11-03T03:54:50.813Z,61.99
2022-11-03T03:57:24.133Z,62.37
2022-11-03T03:59:54.178Z,62.63
2022-11-03T04:02:24.131Z,62.38
2022-11-03T04:04:54.037Z,63.29
2022-11-03T04:07:43.576Z,64.12
2022-11-03T04:10:13.826Z,63.53
2022-11-03T04:13:02.097Z,64.07
2022-11-03T04:15:50.077Z,65.14
2022-11-03T04:18:38.236Z,65.28
2022-11-03T04:21:27.853Z,65.71
2022-11-03T04:24:00.647Z,66.56
2022-11-03T04:26:31.483Z,65.80
2022-11-03T04:29:03.573Z,67.29
2022-11-03T04:31:38.093Z,67.11
2022-11-03T04:34:13.367Z,67.11
2022-11-03T04:36:43.324Z,66.56
2022-11-03T04:39:21.582Z,67.25
2022-11-03T04:41:51.523Z,67.30
2022-11-03T04:44:21.654Z,67.20
2022-11-03T04:46:51.646Z,67.13
2022-11-03T04:49:25.805Z,67.44
2022-11-03T04:51:55.649Z,68.00
2022-11-03T04:54:27.168Z,68.43
2022-11-03T04:56:57.756Z,68.72
2022-11-03T04:59:28.437Z,68.61
2022-11-03T05:01:58.412Z,68.62
2022-11-03T05:04:28.649Z,68.43
2022-11-03T05:06:58.565Z,68.78
2022-11-03T05:09:32.666Z,68.89
2022-11-03T05:12:02.674Z,69.34
2022-11-03T05:14:35.457Z,69.65
2022-11-03T05:17:16.164Z,69.47
2022-11-03T05:19:47.201Z,69.56
2022-11-03T05:22:22.737Z,69.69
2022-11-03T05:25:02.587Z,69.57
2022-11-03T05:27:33.054Z,69.68
2022-11-03T05:30:03.324Z,69.86
2022-11-03T05:32:36.401Z,69.59
2022-11-03T05:35:10.626Z,69.48
2022-11-03T05:37:40.583Z,69.17
2022-11-03T05:40:24.455Z,68.58
2022-11-03T05:42:58.170Z,67.04
2022-11-03T05:45:34.370Z,66.35
2022-11-03T05:48:08.142Z,65.16
2022-11-03T05:50:38.305Z,64.91
2022-11-03T05:53:28.535Z,63.18
2022-11-03T05:56:03.572Z,63.05
2022-11-03T05:58:38.945Z,62.05
2022-11-03T06:01:18.716Z,61.68
2022-11-03T06:03:50.073Z,61.62
2022-11-03T06:06:29.364Z,61.90
2022-11-03T06:09:03.584Z,61.05
2022-11-03T06:11:38.728Z,60.40
2022-11-03T06:14:24.078Z,60.33
2022-11-03T06:16:57.908Z,58.82
2022-11-03T06:19:34.252Z,57.64
2022-11-03T06:22:13.354Z,57.04
2022-11-03T06:24:44.134Z,56.05
2022-11-03T06:27:19.006Z,55.27
2022-11-03T06:29:53.766Z,54.51
2022-11-03T06:32:23.573Z,54.31
2022-11-03T06:34:56.797Z,54.68
2022-11-03T06:37:29.601Z,54.27
2022-11-03T06:40:05.344Z,54.84
2022-11-03T06:42:36.707Z,54.87
2022-11-03T06:45:20.178Z,53.99
2022-11-03T06:47:50.295Z,54.42
2022-11-03T06:52:28.877Z,54.00
2022-11-03T06:55:17.475Z,54.26
2022-11-03T06:57:50.135Z,54.32
2022-11-03T07:00:40.829Z,54.33
2022-11-03T07:03:18.654Z,54.27
2022-11-03T07:05:48.497Z,54.73
2022-11-03T07:08:26.575Z,55.01
2022-11-03T07:11:09.438Z,54.58
2022-11-03T07:13:39.695Z,55.54
2022-11-03T07:16:18.913Z,55.57
2022-11-03T07:18:49.489Z,55.88
2022-11-03T07:21:34.458Z,55.90
2022-11-03T07:24:18.013Z,56.09
2022-11-03T07:26:47.892Z,56.35
2022-11-03T07:29:23.836Z,56.00
2022-11-03T07:31:56.535Z,55.88
2022-11-03T07:34:32.505Z,55.87
2022-11-03T07:37:03.545Z,55.95
2022-11-03T07:39:40.173Z,56.46
2022-11-03T07:42:19.714Z,55.81
2022-11-03T07:44:50.546Z,54.56
2022-11-03T07:47:26.083Z,55.15
2022-11-03T07:49:57.053Z,55.28
2022-11-03T07:52:28.845Z,54.84
2022-11-03T07:55:02.059Z,55.12
2022-11-03T07:57:34.032Z,55.21
2022-11-03T08:00:10.822Z,55.18
2022-11-03T08:02:48.747Z,54.81
2022-11-03T08:07:49.739Z,54.33
2022-11-03T08:10:21.911Z,53.58
2022-11-03T08:12:51.763Z,53.23
2022-11-03T08:15:21.683Z,53.42
2022-11-03T08:17:56.029Z,52.82
2022-11-03T08:20:26.302Z,52.73
2022-11-03T08:23:23.909Z,51.30
2022-11-03T08:25:47.759Z,51.51
2022-11-03T08:28:18.150Z,51.22
2022-11-03T08:30:48.060Z,49.93
2022-11-03T08:33:18.371Z,49.11
2022-11-03T08:35:48.651Z,49.54
2022-11-03T08:38:18.453Z,48.79
2022-11-03T08:40:54.219Z,47.35
2022-11-03T08:43:25.537Z,47.83
2022-11-03T08:45:55.612Z,47.91
2022-11-03T08:48:28.300Z,49.02
2022-11-03T08:50:59.279Z,48.79
2022-11-03T08:53:30.471Z,48.18
2022-11-03T08:56:01.840Z,47.73
2022-11-03T08:58:32.005Z,47.06
2022-11-03T09:01:02.051Z,46.32
2022-11-03T09:03:32.163Z,46.94
2022-11-03T09:06:02.077Z,48.17
2022-11-03T09:11:23.464Z,48.35
2022-11-03T09:13:53.408Z,47.26
2022-11-03T09:16:23.216Z,47.20
2022-11-03T09:18:53.503Z,47.67
2022-11-03T09:21:23.231Z,46.74
2022-11-03T09:23:53.005Z,47.44
2022-11-03T09:26:24.294Z,46.93
2022-11-03T09:28:54.262Z,46.77
2022-11-03T09:31:26.394Z,47.43
2022-11-03T09:33:56.378Z,47.67
2022-11-03T09:36:26.252Z,46.79
2022-11-03T09:38:56.955Z,46.92
2022-11-03T09:41:53.874Z,46.67
2022-11-03T09:44:18.645Z,46.44
2022-11-03T09:46:48.587Z,46.61
2022-11-03T09:52:24.928Z,45.28
2022-11-03T09:54:57.044Z,45.20
2022-11-03T09:57:30.165Z,46.32
2022-11-03T10:00:00.322Z,45.85
2022-11-03T10:02:33.440Z,46.16
2022-11-03T10:05:10.750Z,46.15
2022-11-03T10:07:43.024Z,46.63
2022-11-03T10:10:20.857Z,46.94
2022-11-03T10:12:53.528Z,46.75
2022-11-03T10:15:25.536Z,45.92
2022-11-03T10:17:56.695Z,46.35
2022-11-03T10:20:26.879Z,46.80
2022-11-03T10:22:58.512Z,46.89
2022-11-03T10:25:38.355Z,46.56
2022-11-03T10:28:21.157Z,47.60
2022-11-03T10:31:11.288Z,47.51
2022-11-03T10:33:44.014Z,48.13
2022-11-03T10:36:28.909Z,48.18
2022-11-03T10:39:02.077Z,47.80
2022-11-03T10:41:33.580Z,48.34
2022-11-03T10:44:08.528Z,48.21
2022-11-03T10:46:50.621Z,47.82
2022-11-03T10:49:22.408Z,48.55
2022-11-03T10:51:54.411Z,48.33
2022-11-03T10:54:27.117Z,48.03
2022-11-03T10:56:57.772Z,48.45
2022-11-03T10:59:34.348Z,48.68
2022-11-03T11:02:04.588Z,48.78
2022-11-03T11:04:35.552Z,48.43
2022-11-03T11:07:05.792Z,48.22
2022-11-03T11:09:37.315Z,49.19
2022-11-03T11:12:16.415Z,49.12
2022-11-03T11:14:57.220Z,49.35
2022-11-03T11:17:47.039Z,49.40
2022-11-03T11:20:41.686Z,48.52
2022-11-03T11:23:53.237Z,48.66
2022-11-03T11:26:48.203Z,48.35
2022-11-03T11:29:45.141Z,48.79
2022-11-03T11:32:57.692Z,48.22
2022-11-03T11:36:08.038Z,48.25
2022-11-03T11:39:12.105Z,48.20
2022-11-03T11:42:13.861Z,47.81
2022-11-03T11:45:03.353Z,49.08
2022-11-03T11:47:52.047Z,48.13
2022-11-03T11:50:34.013Z,49.07
2022-11-03T11:53:30.590Z,49.24
2022-11-03T11:56:04.367Z,48.63
2022-11-03T11:58:43.075Z,49.28
2022-11-03T12:01:35.566Z,48.61
2022-11-03T12:04:10.273Z,49.29
2022-11-03T12:06:42.872Z,49.67
2022-11-03T12:09:21.156Z,49.56
2022-11-03T12:11:56.237Z,49.51
2022-11-03T12:14:35.836Z,49.17
2022-11-03T12:17:35.923Z,49.67
2022-11-03T12:20:48.873Z,49.16
2022-11-03T12:23:44.356Z,49.57
2022-11-03T12:26:20.081Z,50.09
2022-11-03T12:28:49.977Z,49.66
2022-11-03T12:31:21.511Z,49.96
2022-11-03T12:33:51.327Z,50.21
2022-11-03T12:36:21.158Z,50.52
2022-11-03T12:38:51.074Z,50.82
2022-11-03T12:41:25.003Z,50.30
2022-11-03T12:43:56.361Z,51.01
2022-11-03T12:46:28.014Z,50.60
2022-11-03T12:52:19.774Z,50.61
2022-11-03T12:54:49.775Z,51.21
2022-11-03T12:57:19.819Z,50.84
2022-11-03T12:59:51.709Z,50.78
2022-11-03T13:02:21.899Z,50.93
2022-11-03T13:04:51.906Z,51.24
2022-11-03T13:07:27.951Z,51.07
2022-11-03T13:10:00.382Z,51.28
2022-11-03T13:12:33.349Z,51.37
2022-11-03T13:15:05.523Z,51.26
2022-11-03T13:17:52.386Z,51.49
2022-11-03T13:20:26.098Z,51.66
2022-11-03T13:22:57.554Z,51.67
2022-11-03T13:25:28.948Z,51.73
2022-11-03T13:27:59.036Z,51.66
2022-11-03T13:30:30.117Z,51.81
2022-11-03T13:33:00.313Z,52.00
2022-11-03T13:35:30.453Z,52.11
2022-11-03T13:38:02.137Z,52.36
2022-11-03T13:43:22.100Z,52.56
2022-11-03T13:45:53.315Z,52.42
2022-11-03T13:51:17.098Z,52.54
2022-11-03T13:59:29.069Z,53.12
2022-11-03T14:04:49.858Z,53.17
2022-11-03T14:07:19.819Z,53.14
2022-11-03T14:09:51.336Z,53.30
2022-11-03T14:12:33.478Z,53.48
2022-11-03T14:15:06.115Z,53.34
2022-11-03T14:17:36.398Z,53.67
2022-11-03T14:20:06.911Z,53.74
2022-11-03T14:22:36.936Z,53.87
2022-11-03T14:25:10.297Z,54.09
2022-11-03T14:27:40.372Z,54.00
2022-11-03T14:30:13.401Z,54.43
2022-11-03T14:32:46.191Z,54.26
2022-11-03T14:35:15.978Z,54.47
2022-11-03T14:37:45.884Z,54.76
2022-11-03T14:40:38.731Z,55.20
2022-11-03T14:43:07.843Z,55.44
2022-11-03T14:45:39.921Z,55.76
2022-11-03T14:48:12.440Z,55.87
2022-11-03T14:50:42.274Z,56.22
2022-11-03T14:53:12.332Z,56.39
2022-11-03T14:55:43.817Z,56.51
2022-11-03T14:58:13.797Z,56.88
2022-11-03T15:00:43.791Z,57.55
2022-11-03T15:03:13.745Z,58.18
2022-11-03T15:05:46.403Z,58.43
2022-11-03T15:08:17.553Z,59.26
2022-11-03T15:10:48.950Z,59.72
2022-11-03T15:13:19.110Z,60.02
2022-11-03T15:15:49.056Z,60.96
2022-11-03T15:18:19.146Z,61.15
2022-11-03T15:20:49.156Z,61.83
2022-11-03T15:26:12.431Z,62.63
2022-11-03T15:28:42.921Z,63.37
2022-11-03T15:31:12.776Z,63.71
2022-11-03T15:33:44.387Z,64.19
2022-11-03T15:36:14.372Z,64.34
2022-11-03T15:38:44.436Z,64.95
2022-11-03T15:41:19.720Z,64.96
2022-11-03T15:43:51.203Z,65.58
2022-11-03T15:46:21.925Z,66.07
2022-11-03T15:52:19.740Z,66.81
2022-11-03T15:54:49.582Z,67.20
2022-11-03T15:57:19.613Z,67.65
2022-11-03T15:59:51.571Z,67.91
2022-11-03T16:05:12.929Z,68.15
2022-11-03T16:07:44.599Z,68.11
2022-11-03T16:10:14.412Z,68.49
2022-11-03T16:12:44.752Z,68.53
2022-11-03T16:15:14.824Z,68.85
2022-11-03T16:17:45.795Z,69.17
2022-11-03T16:20:15.841Z,69.01
2022-11-03T16:22:47.385Z,69.61
2022-11-03T16:25:20.582Z,70.06
2022-11-03T16:27:51.426Z,70.18
2022-11-03T16:30:21.280Z,69.91
2022-11-03T16:32:53.443Z,69.97
2022-11-03T16:35:23.624Z,70.80
2022-11-03T16:37:55.084Z,71.05
2022-11-03T16:40:25.173Z,71.69
2022-11-03T16:42:55.154Z,71.60
2022-11-03T16:45:31.255Z,71.28
2022-11-03T16:48:03.485Z,71.31
2022-11-03T16:50:33.481Z,71.25
2022-11-03T16:53:05.025Z,71.50
2022-11-03T16:55:35.336Z,71.20
2022-11-03T16:58:05.761Z,71.90
2022-11-03T17:00:36.030Z,72.15
2022-11-03T17:03:06.799Z,72.95
2022-11-03T17:05:38.280Z,72.78
2022-11-03T17:08:25.828Z,72.32
2022-11-03T17:11:00.188Z,72.67
2022-11-03T17:13:30.400Z,72.74
2022-11-03T17:16:00.760Z,72.77
2022-11-03T17:18:31.197Z,73.30
2022-11-03T17:21:01.275Z,73.09
2022-11-03T17:26:21.583Z,73.46
2022-11-03T17:28:51.638Z,73.48
2022-11-03T17:31:21.457Z,73.74
2022-11-03T17:33:51.348Z,74.09
2022-11-03T17:36:21.201Z,73.99
2022-11-03T17:38:52.776Z,74.11
2022-11-03T17:41:22.658Z,74.22
2022-11-03T17:43:52.951Z,74.10
2022-11-03T17:46:23.153Z,75.04
2022-11-03T17:48:53.153Z,74.62
2022-11-03T17:51:23.981Z,75.11
2022-11-03T17:53:55.741Z,74.63
2022-11-03T17:56:30.772Z,74.87
2022-11-03T17:59:03.100Z,75.32
2022-11-03T18:01:33.847Z,75.85
2022-11-03T18:04:04.266Z,75.55
2022-11-03T18:06:35.016Z,75.74
2022-11-03T18:09:07.016Z,75.98
2022-11-03T18:11:57.077Z,76.14
2022-11-03T18:14:29.830Z,76.33
2022-11-03T18:16:59.820Z,76.63
2022-11-03T18:19:29.920Z,76.43
2022-11-03T18:22:00.507Z,76.52
2022-11-03T18:24:32.039Z,76.86
2022-11-03T18:27:01.921Z,76.95
2022-11-03T18:29:31.860Z,76.97
2022-11-03T18:32:04.143Z,76.94
2022-11-03T18:34:34.656Z,77.16
2022-11-03T18:37:05.604Z,77.11
2022-11-03T18:39:37.184Z,77.85
2022-11-03T18:42:13.973Z,77.70
2022-11-03T18:44:44.879Z,77.64
2022-11-03T18:47:14.698Z,78.93
2022-11-03T18:52:21.145Z,77.77
2022-11-03T18:54:52.668Z,78.75
2022-11-03T18:57:25.695Z,79.38
2022-11-03T18:59:55.700Z,78.58
2022-11-03T19:02:28.649Z,78.38
2022-11-03T19:04:58.756Z,78.50
2022-11-03T19:07:35.306Z,78.08
2022-11-03T19:10:08.970Z,79.06
2022-11-03T19:12:40.161Z,79.31
2022-11-03T19:15:18.354Z,78.88
2022-11-03T19:17:50.764Z,79.19
2022-11-03T19:20:21.389Z,79.42
2022-11-03T19:22:53.156Z,79.86
2022-11-03T19:25:23.075Z,79.20
2022-11-03T19:27:53.031Z,79.37
2022-11-03T19:30:23.573Z,79.49
2022-11-03T19:32:56.470Z,80.15
2022-11-03T19:35:31.826Z,79.37
2022-11-03T19:38:07.692Z,80.20
2022-11-03T19:40:37.817Z,81.05
2022-11-03T19:43:10.354Z,79.78
2022-11-03T19:45:42.367Z,79.61
2022-11-03T19:48:29.396Z,80.46
2022-11-03T19:50:59.747Z,79.71
2022-11-03T19:53:33.594Z,80.51
2022-11-03T19:56:03.700Z,81.44
2022-11-03T19:58:34.705Z,81.80
2022-11-03T20:01:08.624Z,81.37
2022-11-03T20:03:38.918Z,80.38
2022-11-03T20:06:11.309Z,81.84
2022-11-03T20:08:45.596Z,81.60
2022-11-03T20:11:15.523Z,81.43
2022-11-03T20:13:46.817Z,81.17
2022-11-03T20:16:18.536Z,81.21
2022-11-03T20:18:49.137Z,80.95
2022-11-03T20:21:22.820Z,81.59
2022-11-03T20:23:54.999Z,81.15
2022-11-03T20:26:26.517Z,81.03
2022-11-03T20:28:57.764Z,80.98
2022-11-03T20:31:27.876Z,81.23
2022-11-03T20:33:57.798Z,81.28
2022-11-03T20:36:27.771Z,81.18
2022-11-03T20:38:59.877Z,81.51
2022-11-03T20:41:31.999Z,81.28
2022-11-03T20:44:02.331Z,82.68
2022-11-03T20:46:33.916Z,81.56
2022-11-03T20:49:03.924Z,82.21
2022-11-03T20:51:36.809Z,81.74
2022-11-03T20:54:17.396Z,81.90
2022-11-03T20:56:47.819Z,82.37
2022-11-03T20:59:23.445Z,82.38
2022-11-03T21:01:54.048Z,81.97
2022-11-03T21:04:24.168Z,82.20
2022-11-03T21:06:54.100Z,82.65
2022-11-03T21:09:25.501Z,82.14
2022-11-03T21:11:56.036Z,82.32
2022-11-03T21:14:29.991Z,82.56
2022-11-03T21:17:17.038Z,82.69
2022-11-03T21:20:08.356Z,82.34
2022-11-03T21:22:56.398Z,82.44
2022-11-03T21:25:28.829Z,84.33
2022-11-03T21:27:59.646Z,85.88
2022-11-03T21:30:29.556Z,84.68
2022-11-03T21:32:59.558Z,84.37
2022-11-03T21:35:29.602Z,85.75
2022-11-03T21:37:59.513Z,85.77
2022-11-03T21:40:31.114Z,84.89
2022-11-03T21:43:18.300Z,84.65
2022-11-03T21:45:48.394Z,85.84
2022-11-03T21:48:35.361Z,84.55
2022-11-03T21:52:32.449Z,84.71
2022-11-03T21:55:03.578Z,84.57
2022-11-03T21:57:33.952Z,83.80
2022-11-03T22:00:05.131Z,83.69
2022-11-03T22:02:35.233Z,83.64
2022-11-03T22:05:09.741Z,86.45
2022-11-03T22:07:42.573Z,85.69
2022-11-03T22:10:12.942Z,86.33
2022-11-03T22:12:42.994Z,85.19
2022-11-03T22:15:30.885Z,84.88
2022-11-03T22:18:03.549Z,85.18
2022-11-03T22:20:52.741Z,85.62
2022-11-03T22:23:41.498Z,85.08
2022-11-03T22:26:31.387Z,84.30
2022-11-03T22:29:18.397Z,84.55
2022-11-03T22:31:48.485Z,84.69
2022-11-03T22:34:35.544Z,84.20
2022-11-03T22:37:05.525Z,84.31
2022-11-03T22:39:54.054Z,84.52
2022-11-03T22:42:41.191Z,85.64
2022-11-03T22:45:30.173Z,85.75
2022-11-03T22:48:00.141Z,85.33
2022-11-03T22:50:30.042Z,84.72
2022-11-03T22:53:00.026Z,84.60
2022-11-03T22:55:30.280Z,84.63
2022-11-03T22:58:01.717Z,84.44
2022-11-03T23:00:31.710Z,84.45
2022-11-03T23:03:01.685Z,84.66
2022-11-03T23:05:31.753Z,84.22
2022-11-03T23:08:01.814Z,84.23
2022-11-03T23:10:33.403Z,84.59
2022-11-03T23:13:03.638Z,84.69
2022-11-03T23:15:33.785Z,84.77
2022-11-03T23:18:22.461Z,84.71
2022-11-03T23:21:10.874Z,84.85
2022-11-03T23:23:59.002Z,85.79
2022-11-03T23:26:30.402Z,85.47
2022-11-03T23:29:00.268Z,85.37
2022-11-03T23:31:30.246Z,85.38
2022-11-03T23:34:01.271Z,86.05
2022-11-03T23:36:31.942Z,86.34
2022-11-03T23:39:03.672Z,86.51
2022-11-03T23:41:35.299Z,86.50
2022-11-03T23:44:05.383Z,86.52
2022-11-03T23:46:52.807Z,86.50
2022-11-03T23:49:22.956Z,86.85
2022-11-03T23:51:53.194Z,86.64
2022-11-03T23:54:23.194Z,86.60
2022-11-03T23:57:11.887Z,86.83
2022-11-03T23:59:42.096Z,87.89
